Time;durP1;ratioP1;P1;durP2;ratioP2;P2;SDS_P1;SDS_P2;PMS_P1;PMS_P2;Temp;Humidity;BMP_temperature;BMP_pressure;BME280_temperature;BME280_humidity;BME280_pressure;Samples;Min_cycle;Max_cycle;Signal;HPM_P1;HPM_P2
2023/12/26 00:02:24;;;;;;;0.43;0.17;;;;;;;11.57;100.00;98906.44;5016909;28;20277;-78
2023/12/26 00:04:52;;;;;;;0.67;0.10;;;;;;;11.70;100.00;98925.88;5015562;28;20237;-79
2023/12/26 00:07:18;;;;;;;0.10;0.10;;;;;;;11.60;100.00;98939.47;5017018;28;20198;-80
2023/12/26 00:09:45;;;;;;;0.10;0.10;;;;;;;11.69;100.00;98918.97;5015707;28;20301;-80
2023/12/26 00:12:11;;;;;;;0.20;0.20;;;;;;;11.73;100.00;98919.63;5016553;28;20763;-80
2023/12/26 00:14:38;;;;;;;0.10;0.10;;;;;;;11.52;100.00;98917.13;5016588;28;20206;-80
2023/12/26 00:17:04;;;;;;;0.10;0.10;;;;;;;11.70;100.00;98909.34;5016985;28;20203;-79
2023/12/26 00:19:31;;;;;;;0.10;0.10;;;;;;;11.81;100.00;98917.50;5016450;28;20198;-80
2023/12/26 00:21:58;;;;;;;0.10;0.10;;;;;;;11.87;100.00;98932.91;5017148;28;20285;-79
2023/12/26 00:24:25;;;;;;;0.10;0.10;;;;;;;11.81;100.00;98935.78;5015741;28;20237;-79
2023/12/26 00:26:51;;;;;;;0.10;0.10;;;;;;;11.92;100.00;98940.56;5015727;28;20728;-79
2023/12/26 00:29:17;;;;;;;0.10;0.10;;;;;;;11.93;100.00;98950.06;5016306;28;20286;-79
2023/12/26 00:31:44;;;;;;;0.10;0.10;;;;;;;11.75;100.00;98946.53;5015542;28;20273;-79
2023/12/26 00:34:10;;;;;;;0.10;0.10;;;;;;;11.78;100.00;98942.97;5015742;28;20261;-79
2023/12/26 00:36:36;;;;;;;0.00;0.00;;;;;;;11.67;100.00;98941.72;5015708;28;20206;-79
2023/12/26 00:39:05;;;;;;;0.10;0.10;;;;;;;11.92;100.00;98928.31;5015375;28;20732;-79
2023/12/26 00:41:31;;;;;;;0.33;0.30;;;;;;;12.04;100.00;98946.94;5015786;28;20268;-79
2023/12/26 00:43:58;;;;;;;0.17;0.10;;;;;;;11.91;100.00;98941.47;5016511;28;20254;-80
2023/12/26 00:46:24;;;;;;;0.10;0.10;;;;;;;11.96;100.00;98949.09;5015413;28;20210;-79
2023/12/26 00:48:51;;;;;;;0.10;0.10;;;;;;;11.86;100.00;98961.75;5015557;28;20210;-78
2023/12/26 00:51:17;;;;;;;0.10;0.10;;;;;;;11.97;100.00;98946.41;5016098;28;20222;-77
2023/12/26 00:53:43;;;;;;;0.10;0.10;;;;;;;11.96;100.00;98943.88;5015114;28;20206;-79
2023/12/26 00:56:11;;;;;;;0.17;0.17;;;;;;;11.95;100.00;98956.06;5016437;28;20211;-79
2023/12/26 00:58:37;;;;;;;0.10;0.10;;;;;;;11.78;100.00;98954.25;5016536;28;20218;-80
2023/12/26 01:01:04;;;;;;;0.10;0.10;;;;;;;11.96;100.00;98949.94;5015093;28;20296;-79
2023/12/26 01:03:30;;;;;;;0.00;0.00;;;;;;;11.90;100.00;98958.09;5015496;28;20216;-79
2023/12/26 01:05:57;;;;;;;0.40;0.20;;;;;;;11.85;100.00;98949.56;5015575;28;20264;-80
2023/12/26 01:08:24;;;;;;;0.10;0.10;;;;;;;11.84;100.00;98946.13;5015652;28;20217;-79
2023/12/26 01:10:51;;;;;;;0.87;0.10;;;;;;;11.92;100.00;98953.63;5015060;28;20223;-79
2023/12/26 01:13:18;;;;;;;0.10;0.10;;;;;;;11.83;100.00;98954.91;5015747;28;20264;-80
2023/12/26 01:15:45;;;;;;;0.13;0.13;;;;;;;11.95;100.00;98960.47;5014967;28;20202;-79
2023/12/26 01:18:11;;;;;;;0.10;0.10;;;;;;;11.77;100.00;98964.78;5015551;28;20211;-79
2023/12/26 01:20:38;;;;;;;0.30;0.10;;;;;;;11.74;100.00;98931.78;5015345;28;20207;-79
2023/12/26 01:23:04;;;;;;;0.10;0.10;;;;;;;11.84;100.00;98937.44;5015045;28;20230;-79
2023/12/26 01:25:31;;;;;;;0.10;0.10;;;;;;;11.86;100.00;98935.59;5014912;28;20253;-79
2023/12/26 01:27:58;;;;;;;0.10;0.10;;;;;;;11.94;100.00;98948.31;5015636;28;20207;-79
2023/12/26 01:30:26;;;;;;;0.10;0.10;;;;;;;11.84;100.00;98955.72;5015320;28;20226;-79
2023/12/26 01:32:52;;;;;;;0.10;0.10;;;;;;;11.84;100.00;98958.34;5015460;28;20225;-79
2023/12/26 01:35:18;;;;;;;1.30;0.20;;;;;;;11.89;100.00;98957.25;5015738;28;20199;-79
2023/12/26 01:37:45;;;;;;;0.23;0.10;;;;;;;12.01;100.00;98949.69;5015361;28;20209;-79
2023/12/26 01:40:12;;;;;;;0.10;0.10;;;;;;;11.89;100.00;98979.91;5014818;28;20209;-79
2023/12/26 01:42:40;;;;;;;0.10;0.10;;;;;;;11.64;100.00;98948.84;5014965;28;20269;-79
2023/12/26 01:45:07;;;;;;;0.10;0.10;;;;;;;11.83;100.00;98940.94;5015879;28;20206;-80
2023/12/26 01:47:35;;;;;;;0.10;0.10;;;;;;;11.71;100.00;98931.94;5015578;28;20214;-80
2023/12/26 01:50:02;;;;;;;0.10;0.10;;;;;;;11.92;100.00;98940.56;5016305;28;20226;-79
2023/12/26 01:52:29;;;;;;;0.20;0.10;;;;;;;11.95;100.00;98950.00;5014953;28;20286;-79
2023/12/26 01:54:56;;;;;;;0.10;0.10;;;;;;;11.63;100.00;98947.97;5014905;28;20212;-80
2023/12/26 01:57:23;;;;;;;0.20;0.20;;;;;;;11.68;100.00;98919.88;5015146;28;20199;-80
2023/12/26 01:59:49;;;;;;;0.20;0.10;;;;;;;11.79;100.00;98923.72;5015247;28;20206;-79
2023/12/26 02:02:18;;;;;;;0.10;0.10;;;;;;;11.75;100.00;98924.78;5015570;28;20219;-79
2023/12/26 02:04:46;;;;;;;0.63;0.10;;;;;;;11.81;100.00;98927.94;5015986;28;20211;-79
2023/12/26 02:07:12;;;;;;;0.10;0.10;;;;;;;11.84;100.00;98932.22;5018876;28;20652;-78
2023/12/26 02:09:38;;;;;;;0.10;0.10;;;;;;;11.80;100.00;98928.88;5018570;28;20227;-79
2023/12/26 02:12:05;;;;;;;0.10;0.10;;;;;;;11.89;100.00;98936.31;5018454;28;20231;-80
2023/12/26 02:14:32;;;;;;;0.10;0.10;;;;;;;11.89;100.00;98945.91;5018827;28;20211;-79
2023/12/26 02:17:02;;;;;;;0.10;0.10;;;;;;;11.86;100.00;98959.97;5017951;28;20264;-79
2023/12/26 02:19:28;;;;;;;0.10;0.10;;;;;;;11.92;100.00;98949.22;5019545;28;20230;-79
2023/12/26 02:21:56;;;;;;;0.10;0.10;;;;;;;11.72;100.00;98970.22;5018016;28;20234;-80
2023/12/26 02:24:24;;;;;;;0.10;0.10;;;;;;;11.86;100.00;98961.75;5017444;28;20677;-79
2023/12/26 02:26:55;;;;;;;0.30;0.10;;;;;;;11.84;100.00;98969.66;5018208;28;20314;-79
2023/12/26 02:29:23;;;;;;;0.00;0.00;;;;;;;11.70;100.00;99008.66;5018414;28;20265;-78
2023/12/26 02:31:52;;;;;;;0.10;0.10;;;;;;;11.79;100.00;98976.00;5018252;28;20227;-78
2023/12/26 02:34:18;;;;;;;0.00;0.00;;;;;;;11.63;100.00;98984.56;5018537;28;20558;-79
2023/12/26 02:36:45;;;;;;;0.10;0.10;;;;;;;11.77;100.00;98990.91;5017085;28;20214;-79
2023/12/26 02:39:11;;;;;;;0.10;0.10;;;;;;;11.75;100.00;99000.59;5017364;28;20207;-79
2023/12/26 02:41:39;;;;;;;0.77;0.20;;;;;;;11.71;100.00;99008.59;5017552;28;20228;-78
2023/12/26 02:44:06;;;;;;;0.10;0.10;;;;;;;11.61;100.00;98996.03;5018128;28;20264;-79
2023/12/26 02:46:32;;;;;;;0.57;0.10;;;;;;;11.75;100.00;99008.44;5017831;28;20210;-79
2023/12/26 02:48:59;;;;;;;0.20;0.10;;;;;;;11.56;100.00;99006.69;5017831;28;20230;-80
2023/12/26 02:51:25;;;;;;;0.37;0.10;;;;;;;11.58;100.00;99014.47;5017475;28;20249;-77
2023/12/26 02:53:52;;;;;;;0.10;0.10;;;;;;;11.69;100.00;99030.47;5017290;28;20215;-79
2023/12/26 02:56:19;;;;;;;0.17;0.10;;;;;;;11.41;100.00;99036.13;5017739;28;20272;-80
2023/12/26 02:58:46;;;;;;;0.23;0.17;;;;;;;11.69;100.00;99040.94;5017755;28;20210;-80
2023/12/26 03:01:13;;;;;;;0.40;0.40;;;;;;;11.52;100.00;99055.63;5016752;28;20601;-78
2023/12/26 03:03:39;;;;;;;0.83;0.30;;;;;;;11.41;100.00;99055.25;5016913;28;20678;-78
2023/12/26 03:06:07;;;;;;;0.40;0.30;;;;;;;11.31;100.00;99048.75;5017640;28;20800;-79
2023/12/26 03:08:33;;;;;;;0.57;0.47;;;;;;;11.38;100.00;99041.47;5017634;28;20881;-76
2023/12/26 03:11:00;;;;;;;0.40;0.40;;;;;;;11.19;100.00;99033.63;5016835;28;20246;-79
2023/12/26 03:13:26;;;;;;;0.43;0.37;;;;;;;11.31;100.00;99036.53;5017845;28;20234;-79
2023/12/26 03:15:54;;;;;;;0.90;0.67;;;;;;;11.30;100.00;99015.72;5016606;28;20215;-79
2023/12/26 03:18:21;;;;;;;0.50;0.50;;;;;;;11.37;100.00;99021.50;5017482;28;20203;-78
2023/12/26 03:20:47;;;;;;;0.30;0.30;;;;;;;11.24;100.00;99029.06;5017216;28;20269;-79
2023/12/26 03:23:13;;;;;;;0.47;0.47;;;;;;;11.33;100.00;99031.25;5016986;28;20253;-78
2023/12/26 03:25:40;;;;;;;0.77;0.70;;;;;;;11.12;100.00;99017.41;5016465;28;20207;-77
2023/12/26 03:28:06;;;;;;;0.73;0.70;;;;;;;11.19;100.00;99005.75;5017980;28;20261;-79
2023/12/26 03:30:33;;;;;;;1.43;0.70;;;;;;;11.34;100.00;98993.78;5017167;28;20640;-80
2023/12/26 03:33:01;;;;;;;0.50;0.50;;;;;;;11.21;100.00;98997.84;5016789;28;20236;-80
2023/12/26 03:35:27;;;;;;;0.63;0.63;;;;;;;11.15;100.00;98983.28;5017098;28;20879;-78
2023/12/26 03:37:53;;;;;;;0.30;0.30;;;;;;;11.26;100.00;98993.28;5017245;28;20639;-78
2023/12/26 03:40:20;;;;;;;0.50;0.50;;;;;;;11.12;100.00;99026.06;5016664;28;20225;-79
2023/12/26 03:42:47;;;;;;;0.93;0.80;;;;;;;11.13;100.00;99013.84;5017120;28;20234;-78
2023/12/26 03:45:13;;;;;;;0.70;0.60;;;;;;;11.15;100.00;98998.97;5016255;28;20203;-79
2023/12/26 03:47:40;;;;;;;0.70;0.70;;;;;;;11.22;100.00;99007.34;5016852;28;20682;-79
2023/12/26 03:50:10;;;;;;;1.13;0.90;;;;;;;11.01;100.00;99017.00;5009443;28;20300;-79
2023/12/26 03:52:37;;;;;;;1.37;0.90;;;;;;;11.20;100.00;99032.69;5017244;28;20250;-78
2023/12/26 03:55:03;;;;;;;0.73;0.73;;;;;;;10.93;100.00;99046.06;5015866;28;20684;-79
2023/12/26 03:57:30;;;;;;;1.50;1.40;;;;;;;11.10;100.00;99033.13;5017106;28;20613;-79
2023/12/26 03:59:56;;;;;;;1.40;1.10;;;;;;;11.11;100.00;99052.25;5016105;28;20207;-76
2023/12/26 04:02:22;;;;;;;0.73;0.73;;;;;;;11.01;100.00;99075.28;5016197;28;20218;-79
2023/12/26 04:04:49;;;;;;;1.07;0.97;;;;;;;11.09;100.00;99094.09;5016216;28;20209;-79
2023/12/26 04:07:17;;;;;;;1.70;0.80;;;;;;;11.11;100.00;99096.63;5016720;28;20207;-80
2023/12/26 04:09:43;;;;;;;1.10;1.00;;;;;;;11.15;100.00;99120.88;5016103;28;20257;-79
2023/12/26 04:12:09;;;;;;;0.50;0.50;;;;;;;11.10;100.00;99129.75;5016549;28;20257;-80
2023/12/26 04:14:36;;;;;;;1.37;0.67;;;;;;;11.31;100.00;99142.78;5016216;28;20253;-79
2023/12/26 04:17:02;;;;;;;0.70;0.70;;;;;;;11.30;100.00;99130.66;5016081;28;20230;-79
2023/12/26 04:19:28;;;;;;;0.80;0.80;;;;;;;11.04;100.00;99142.19;5017014;28;20206;-79
2023/12/26 04:21:55;;;;;;;1.00;0.60;;;;;;;11.11;100.00;99147.09;5016678;28;20288;-79
2023/12/26 04:24:22;;;;;;;1.00;0.80;;;;;;;11.25;100.00;99140.44;5015948;28;20261;-79
2023/12/26 04:26:49;;;;;;;0.60;0.60;;;;;;;11.15;100.00;99180.94;5016097;28;20249;-78
2023/12/26 04:29:15;;;;;;;0.50;0.50;;;;;;;11.14;100.00;99177.47;5015824;28;20211;-78
2023/12/26 04:31:42;;;;;;;0.90;0.67;;;;;;;11.30;100.00;99178.53;5015615;28;20238;-79
2023/12/26 04:34:08;;;;;;;0.30;0.30;;;;;;;11.09;100.00;99206.38;5015377;28;20265;-78
2023/12/26 04:36:35;;;;;;;0.50;0.50;;;;;;;11.21;100.00;99246.81;5016368;28;20206;-79
2023/12/26 04:39:01;;;;;;;0.20;0.20;;;;;;;11.35;100.00;99243.63;5015333;28;20207;-79
2023/12/26 04:41:29;;;;;;;1.40;0.20;;;;;;;11.21;100.00;99266.88;5016422;28;20289;-79
2023/12/26 04:43:55;;;;;;;1.57;0.50;;;;;;;10.91;100.00;99308.94;5015740;28;20593;-79
2023/12/26 04:46:21;;;;;;;0.63;0.40;;;;;;;10.37;100.00;99339.66;5015745;28;20268;-79
2023/12/26 04:48:48;;;;;;;1.30;1.13;;;;;;;10.23;100.00;99293.16;5015920;28;20233;-80
2023/12/26 04:51:16;;;;;;;2.43;0.40;;;;;;;9.78;100.00;99239.16;5015616;28;20694;-79
2023/12/26 04:53:42;;;;;;;3.80;0.40;;;;;;;9.31;100.00;99163.50;5014422;28;20665;-79
2023/12/26 04:56:08;;;;;;;1.57;0.30;;;;;;;9.34;100.00;99132.16;5015115;28;20202;-80
2023/12/26 04:58:36;;;;;;;0.37;0.30;;;;;;;9.05;100.00;99157.41;5014467;28;20211;-80
2023/12/26 05:01:02;;;;;;;1.60;1.00;;;;;;;8.87;100.00;99145.84;5015000;28;20227;-80
2023/12/26 05:03:29;;;;;;;0.50;0.47;;;;;;;8.83;100.00;99127.81;5014344;28;20279;-80
2023/12/26 05:05:56;;;;;;;1.33;0.50;;;;;;;8.75;100.00;99115.88;5015023;28;20705;-79
2023/12/26 05:08:22;;;;;;;1.27;0.77;;;;;;;8.90;100.00;99103.25;5015366;28;20261;-79
2023/12/26 05:10:48;;;;;;;1.77;0.50;;;;;;;8.93;100.00;99117.03;5014108;28;20273;-77
2023/12/26 05:13:15;;;;;;;2.30;0.60;;;;;;;9.06;100.00;99137.47;5015344;28;20267;-78
2023/12/26 05:15:44;;;;;;;1.13;0.50;;;;;;;9.18;100.00;99170.00;5014914;28;20203;-78
2023/12/26 05:18:11;;;;;;;1.43;0.30;;;;;;;9.21;100.00;99193.34;5014571;28;20673;-78
2023/12/26 05:20:39;;;;;;;1.13;0.40;;;;;;;9.14;100.00;99190.97;5014772;28;20671;-79
2023/12/26 05:23:05;;;;;;;1.90;0.73;;;;;;;9.08;100.00;99209.38;5015137;28;20791;-79
2023/12/26 05:25:32;;;;;;;0.97;0.40;;;;;;;9.20;100.00;99215.94;5014156;28;20210;-79
2023/12/26 05:27:58;;;;;;;1.13;0.50;;;;;;;9.05;100.00;99229.44;5014854;28;20203;-80
2023/12/26 05:30:24;;;;;;;0.60;0.50;;;;;;;9.18;100.00;99216.88;5014442;28;20207;-79
2023/12/26 05:32:52;;;;;;;0.50;0.50;;;;;;;9.24;100.00;99243.56;5012432;28;20227;-78
2023/12/26 05:35:18;;;;;;;0.97;0.60;;;;;;;9.24;100.00;99271.38;5014436;28;20226;-79
2023/12/26 05:37:45;;;;;;;0.70;0.40;;;;;;;9.32;100.00;99279.78;5014349;28;20219;-78
2023/12/26 05:40:12;;;;;;;1.57;0.70;;;;;;;9.31;100.00;99286.72;5017037;28;20206;-78
2023/12/26 05:42:38;;;;;;;1.50;0.77;;;;;;;9.19;100.00;99289.72;5017576;28;20357;-78
2023/12/26 05:45:05;;;;;;;1.40;0.60;;;;;;;9.18;100.00;99292.38;5017229;28;20226;-78
2023/12/26 05:47:32;;;;;;;0.87;0.60;;;;;;;9.30;100.00;99308.47;5017749;28;20201;-78
2023/12/26 05:49:59;;;;;;;1.93;0.60;;;;;;;9.19;100.00;99307.94;5018215;28;20265;-78
2023/12/26 05:52:26;;;;;;;1.17;0.50;;;;;;;9.25;100.00;99325.13;5017780;28;20266;-78
2023/12/26 05:54:53;;;;;;;0.80;0.40;;;;;;;9.09;100.00;99343.00;5016512;28;20264;-76
2023/12/26 05:57:19;;;;;;;1.80;0.60;;;;;;;9.20;100.00;99338.31;5017986;28;20211;-78
2023/12/26 05:59:45;;;;;;;1.13;0.60;;;;;;;9.11;100.00;99373.28;5017707;28;20614;-79
2023/12/26 06:02:12;;;;;;;1.50;0.67;;;;;;;9.30;100.00;99383.16;5017086;28;20597;-78
2023/12/26 06:04:38;;;;;;;2.03;0.77;;;;;;;9.26;100.00;99387.59;5016708;28;20219;-79
2023/12/26 06:07:06;;;;;;;1.27;0.60;;;;;;;9.30;100.00;99394.41;5017310;28;20253;-79
2023/12/26 06:09:32;;;;;;;1.23;0.53;;;;;;;9.40;100.00;99402.78;5016849;28;20201;-76
2023/12/26 06:11:58;;;;;;;2.60;0.50;;;;;;;9.34;100.00;99416.84;5017393;28;20778;-78
2023/12/26 06:14:25;;;;;;;1.47;0.60;;;;;;;9.43;100.00;99422.69;5017594;28;20209;-78
2023/12/26 06:16:51;;;;;;;1.87;0.67;;;;;;;9.33;100.00;99424.69;5017967;28;20245;-78
2023/12/26 06:19:19;;;;;;;1.33;0.50;;;;;;;9.52;100.00;99422.41;5017158;28;20257;-79
2023/12/26 06:21:45;;;;;;;2.50;0.80;;;;;;;9.46;100.00;99433.00;5017430;28;20713;-78
2023/12/26 06:24:13;;;;;;;1.73;0.70;;;;;;;9.50;100.00;99429.41;5015975;28;20214;-79
2023/12/26 06:26:38;;;;;;;2.43;0.80;;;;;;;9.51;100.00;99447.59;5016985;28;20260;-78
2023/12/26 06:29:04;;;;;;;2.93;0.83;;;;;;;9.50;100.00;99437.22;5017280;28;20219;-78
2023/12/26 06:31:31;;;;;;;1.80;0.60;;;;;;;9.49;100.00;99439.00;5015515;28;20283;-78
2023/12/26 06:33:57;;;;;;;1.30;0.80;;;;;;;9.38;100.00;99440.22;5017064;28;20253;-79
2023/12/26 06:36:27;;;;;;;3.27;1.10;;;;;;;9.32;100.00;99451.66;5016547;28;20661;-78
2023/12/26 06:38:56;;;;;;;1.20;0.80;;;;;;;9.29;100.00;99455.19;5015701;28;21060;-78
2023/12/26 06:41:24;;;;;;;2.00;0.90;;;;;;;9.38;100.00;99438.44;5009071;28;20600;-78
2023/12/26 06:43:50;;;;;;;0.70;0.70;;;;;;;9.47;100.00;99461.59;5016793;28;20743;-77
2023/12/26 06:46:16;;;;;;;2.30;0.90;;;;;;;9.31;100.00;99489.00;5016331;28;20241;-78
2023/12/26 06:48:43;;;;;;;0.50;0.50;;;;;;;9.25;100.00;99492.63;5016695;28;20747;-78
2023/12/26 06:51:09;;;;;;;3.17;0.90;;;;;;;9.42;100.00;99501.72;5015339;28;20588;-78
2023/12/26 06:53:35;;;;;;;1.47;0.77;;;;;;;9.28;100.00;99509.94;5015809;28;20217;-76
2023/12/26 06:56:04;;;;;;;1.90;0.63;;;;;;;9.37;99.49;99532.25;5017227;28;20214;-78
2023/12/26 06:58:32;;;;;;;1.83;1.00;;;;;;;9.47;98.23;99552.75;5016887;28;20210;-77
2023/12/26 07:00:58;;;;;;;2.07;0.70;;;;;;;9.68;98.80;99579.13;5015730;28;20670;-78
2023/12/26 07:03:25;;;;;;;0.73;0.50;;;;;;;9.50;98.15;99590.94;5016569;28;20205;-78
2023/12/26 07:05:51;;;;;;;1.60;0.50;;;;;;;9.62;96.65;99616.63;5016316;28;20214;-77
2023/12/26 07:08:18;;;;;;;0.77;0.60;;;;;;;9.63;94.07;99683.50;5016586;28;20209;-78
2023/12/26 07:10:45;;;;;;;0.90;0.50;;;;;;;9.57;95.48;99688.84;5015688;28;20203;-76
2023/12/26 07:13:11;;;;;;;2.03;0.60;;;;;;;9.49;90.96;99729.88;5015974;28;20237;-78
2023/12/26 07:15:39;;;;;;;1.47;0.50;;;;;;;9.38;90.06;99797.88;5015340;28;20278;-79
2023/12/26 07:18:05;;;;;;;3.57;0.73;;;;;;;9.10;86.69;99848.00;5015647;28;20293;-78
2023/12/26 07:20:32;;;;;;;2.90;0.60;;;;;;;8.93;83.80;99934.25;5015327;28;20210;-78
2023/12/26 07:22:58;;;;;;;4.77;0.70;;;;;;;8.96;81.65;100011.47;5015140;28;20246;-75
2023/12/26 07:25:24;;;;;;;2.23;0.53;;;;;;;8.81;79.92;100076.81;5014710;28;20236;-79
2023/12/26 07:27:51;;;;;;;4.03;0.80;;;;;;;8.68;81.23;100104.75;5016229;28;20282;-79
2023/12/26 07:30:17;;;;;;;4.53;0.80;;;;;;;8.65;80.96;100141.25;5015361;28;20242;-78
2023/12/26 07:32:45;;;;;;;2.50;0.70;;;;;;;8.57;81.26;100148.31;5014600;28;20237;-78
2023/12/26 07:35:11;;;;;;;4.17;1.00;;;;;;;8.50;81.47;100156.22;5014908;28;20614;-79
2023/12/26 07:37:37;;;;;;;4.77;0.90;;;;;;;8.55;82.01;100157.00;5015287;28;20638;-79
2023/12/26 07:40:05;;;;;;;2.23;0.70;;;;;;;8.59;82.24;100157.81;5014786;28;20638;-78
2023/12/26 07:42:31;;;;;;;3.13;0.90;;;;;;;8.59;82.49;100162.16;5015081;28;20697;-78
2023/12/26 07:44:57;;;;;;;2.53;0.63;;;;;;;8.59;83.53;100151.75;5014190;28;20741;-78
2023/12/26 07:47:24;;;;;;;2.57;0.80;;;;;;;8.55;82.41;100159.59;5006075;28;20259;-78
2023/12/26 07:49:51;;;;;;;1.37;0.80;;;;;;;8.54;81.97;100165.69;5015486;28;20236;-78
2023/12/26 07:52:18;;;;;;;2.10;0.70;;;;;;;8.47;81.51;100179.66;5014744;28;20234;-78
2023/12/26 07:54:44;;;;;;;4.20;1.00;;;;;;;8.51;81.94;100163.13;5014921;28;20204;-78
2023/12/26 07:57:10;;;;;;;3.50;0.90;;;;;;;8.50;81.64;100177.03;5015106;28;20636;-80
2023/12/26 07:59:37;;;;;;;4.03;0.97;;;;;;;8.53;81.80;100174.38;5016476;28;20744;-79
2023/12/26 08:02:03;;;;;;;3.17;0.60;;;;;;;8.58;82.85;100166.50;5016525;28;20225;-79
2023/12/26 08:04:30;;;;;;;3.90;1.60;;;;;;;8.45;82.51;100177.97;5018004;28;20746;-80
2023/12/26 08:06:57;;;;;;;4.73;1.60;;;;;;;8.57;82.26;100185.59;5018242;28;20638;-81
2023/12/26 08:09:24;;;;;;;3.07;1.93;;;;;;;8.58;81.26;100197.72;5016816;28;20562;-80
2023/12/26 08:11:50;;;;;;;4.70;1.10;;;;;;;8.78;81.58;100206.97;5016409;28;20931;-79
2023/12/26 08:14:17;;;;;;;3.70;0.80;;;;;;;8.43;81.74;100213.56;5016374;28;20665;-80
2023/12/26 08:16:44;;;;;;;2.53;0.90;;;;;;;8.38;83.65;100187.56;5016415;28;20666;-80
2023/12/26 08:19:10;;;;;;;3.57;1.00;;;;;;;8.64;83.32;100163.81;5016344;28;20206;-80
2023/12/26 08:21:37;;;;;;;6.60;0.83;;;;;;;8.61;83.43;100170.81;5019113;28;20228;-80
2023/12/26 08:24:07;;;;;;;4.13;1.10;;;;;;;8.64;83.90;100173.34;5023689;28;20207;-79
2023/12/26 08:26:33;;;;;;;4.83;1.07;;;;;;;8.37;84.09;100165.06;5017169;28;20209;-80
2023/12/26 08:29:00;;;;;;;4.73;1.40;;;;;;;8.41;84.87;100138.16;5017483;28;20237;-81
2023/12/26 08:31:26;;;;;;;5.10;0.80;;;;;;;8.38;85.23;100130.34;5015261;28;20230;-80
2023/12/26 08:33:53;;;;;;;2.57;1.10;;;;;;;8.29;86.05;100109.69;5016533;28;20203;-79
2023/12/26 08:36:19;;;;;;;3.77;1.00;;;;;;;8.26;85.55;100118.38;5015855;28;20207;-81
2023/12/26 08:38:45;;;;;;;2.17;0.70;;;;;;;8.38;84.34;100129.50;5015323;28;20260;-80
2023/12/26 08:41:13;;;;;;;4.27;1.30;;;;;;;8.48;84.68;100133.69;5016299;28;20285;-80
2023/12/26 08:43:40;;;;;;;2.93;1.00;;;;;;;8.73;84.58;100132.44;5016230;28;20211;-80
2023/12/26 08:46:06;;;;;;;1.70;0.83;;;;;;;8.64;84.08;100153.41;5015254;28;20719;-78
2023/12/26 08:48:33;;;;;;;3.87;0.83;;;;;;;8.74;83.76;100156.69;5014427;28;20322;-78
2023/12/26 08:50:59;;;;;;;2.87;1.07;;;;;;;8.99;83.28;100177.13;5014719;28;20211;-78
2023/12/26 08:53:25;;;;;;;1.47;0.87;;;;;;;9.12;83.31;100192.53;5014497;28;20388;-80
2023/12/26 08:55:52;;;;;;;3.40;0.80;;;;;;;9.13;83.54;100198.59;5014618;28;20209;-80
2023/12/26 08:58:19;;;;;;;3.73;1.00;;;;;;;9.18;84.08;100188.97;5014448;28;20259;-79
2023/12/26 09:00:46;;;;;;;4.73;2.57;;;;;;;9.14;84.85;100163.88;5014333;28;20219;-78
2023/12/26 09:03:12;;;;;;;3.33;2.13;;;;;;;9.28;86.70;100122.81;5014196;28;20206;-80
2023/12/26 09:05:40;;;;;;;2.50;1.13;;;;;;;9.25;85.67;100127.19;5014605;28;20231;-79
2023/12/26 09:08:06;;;;;;;2.33;1.10;;;;;;;9.38;86.51;100115.66;5014271;28;20208;-78
2023/12/26 09:10:33;;;;;;;5.00;1.40;;;;;;;9.42;87.49;100093.03;5013816;28;20747;-78
2023/12/26 09:12:59;;;;;;;3.27;1.10;;;;;;;9.46;86.56;100121.59;5014156;28;20677;-80
2023/12/26 09:15:27;;;;;;;3.53;1.20;;;;;;;9.57;86.29;100142.22;5017678;28;20967;-79
2023/12/26 09:17:53;;;;;;;3.90;1.53;;;;;;;9.45;85.12;100151.13;5018480;28;20203;-80
2023/12/26 09:20:20;;;;;;;2.57;1.10;;;;;;;9.15;83.90;100189.00;5018249;28;20249;-79
2023/12/26 09:22:46;;;;;;;3.07;0.70;;;;;;;9.44;83.19;100224.13;5018086;28;20277;-78
2023/12/26 09:25:13;;;;;;;0.93;0.60;;;;;;;9.14;81.89;100268.88;5017533;28;20240;-80
2023/12/26 09:27:41;;;;;;;2.10;1.13;;;;;;;9.15;81.97;100277.53;5017774;28;20324;-81
2023/12/26 09:30:09;;;;;;;1.47;0.70;;;;;;;9.25;81.82;100299.09;5017452;28;20210;-77
2023/12/26 09:32:37;;;;;;;2.83;1.00;;;;;;;9.26;80.98;100313.84;5017394;28;20286;-79
2023/12/26 09:35:04;;;;;;;6.23;0.97;;;;;;;9.29;80.25;100347.66;5016834;28;20334;-80
2023/12/26 09:37:34;;;;;;;3.07;1.20;;;;;;;9.15;79.79;100385.16;5016975;28;20259;-80
2023/12/26 09:40:01;;;;;;;2.37;0.60;;;;;;;8.82;81.31;100370.88;5016612;28;20258;-80
2023/12/26 09:42:27;;;;;;;2.70;1.10;;;;;;;9.15;81.06;100355.66;5016853;28;20230;-78
2023/12/26 09:44:54;;;;;;;5.13;1.10;;;;;;;9.19;79.92;100380.78;5014039;28;20199;-79
2023/12/26 09:47:22;;;;;;;1.53;0.73;;;;;;;9.33;80.52;100352.78;5017257;28;20210;-79
2023/12/26 09:49:50;;;;;;;3.67;1.00;;;;;;;9.47;79.93;100370.81;5019613;28;20636;-80
2023/12/26 09:52:17;;;;;;;3.13;0.93;;;;;;;9.27;79.64;100398.91;5024841;28;20718;-80
2023/12/26 09:54:45;;;;;;;4.07;0.93;;;;;;;9.56;80.45;100390.66;5024519;28;20241;-79
2023/12/26 09:57:12;;;;;;;2.63;0.83;;;;;;;9.49;80.12;100384.69;5017048;28;20209;-79
2023/12/26 09:59:40;;;;;;;3.30;0.93;;;;;;;9.29;79.33;100412.75;5017073;28;20272;-80
2023/12/26 10:02:11;;;;;;;2.23;0.70;;;;;;;9.49;80.61;100391.63;5017423;28;20657;-79
2023/12/26 10:04:37;;;;;;;3.23;0.73;;;;;;;9.37;80.75;100391.81;5014401;28;20214;-78
2023/12/26 10:07:05;;;;;;;3.47;0.97;;;;;;;9.21;80.22;100386.81;5016433;28;20277;-79
2023/12/26 10:09:32;;;;;;;13.07;11.47;;;;;;;9.48;81.43;100376.91;5016332;28;20205;-79
2023/12/26 10:11:58;;;;;;;7.83;5.20;;;;;;;9.40;80.25;100405.66;5017102;28;20774;-79
2023/12/26 10:14:29;;;;;;;3.43;1.40;;;;;;;9.25;80.51;100400.66;5015671;28;20288;-79
2023/12/26 10:16:56;;;;;;;4.87;2.23;;;;;;;9.12;81.21;100400.00;5014327;28;20665;-80
2023/12/26 10:19:22;;;;;;;3.87;1.23;;;;;;;9.30;81.27;100386.69;5018016;28;20210;-79
2023/12/26 10:21:50;;;;;;;3.00;1.30;;;;;;;9.26;81.39;100379.81;5018323;28;20304;-80
2023/12/26 10:24:18;;;;;;;4.33;1.90;;;;;;;9.31;82.08;100375.38;5017408;28;20210;-80
2023/12/26 10:26:44;;;;;;;3.27;1.03;;;;;;;9.24;82.29;100362.50;5015398;28;20205;-78
2023/12/26 10:29:11;;;;;;;5.30;1.20;;;;;;;9.15;82.31;100343.50;5016067;28;20214;-78
2023/12/26 10:31:38;;;;;;;4.40;1.57;;;;;;;9.40;81.20;100369.19;5007835;28;20230;-79
2023/12/26 10:34:16;;;;;;;2.53;0.90;;;;;;;9.49;79.51;100394.22;5015510;28;20269;-82
2023/12/26 10:36:43;;;;;;;1.60;0.57;;;;;;;9.34;77.22;100463.06;5009017;28;20602;-79
2023/12/26 10:39:10;;;;;;;3.97;0.97;;;;;;;9.37;78.97;100477.78;5016481;28;20202;-80
2023/12/26 10:41:39;;;;;;;1.80;1.00;;;;;;;9.38;79.97;100462.16;5015639;28;20227;-79
2023/12/26 10:44:07;;;;;;;1.87;0.90;;;;;;;9.51;78.14;100452.41;5016298;28;20226;-77
2023/12/26 10:46:33;;;;;;;9.97;2.90;;;;;;;9.34;76.39;100509.97;5015669;28;20210;-78
2023/12/26 10:49:04;;;;;;;4.13;1.70;;;;;;;9.44;77.37;100527.19;5015735;28;20211;-79
2023/12/26 10:51:32;;;;;;;2.83;0.90;;;;;;;9.44;75.33;100545.44;5015816;28;20254;-80
2023/12/26 10:54:05;;;;;;;3.10;1.00;;;;;;;9.29;74.45;100588.13;5014809;28;20634;-80
2023/12/26 10:56:33;;;;;;;4.67;1.03;;;;;;;9.44;74.84;100620.13;5015871;28;20260;-79
2023/12/26 10:59:02;;;;;;;4.63;1.47;;;;;;;9.28;75.79;100628.09;5015817;28;20210;-79
2023/12/26 11:01:28;;;;;;;4.47;1.63;;;;;;;9.29;75.44;100613.34;5015011;28;20230;-79
2023/12/26 11:03:54;;;;;;;4.23;1.43;;;;;;;9.57;74.96;100611.25;5015134;28;20685;-79
2023/12/26 11:06:22;;;;;;;4.47;1.00;;;;;;;9.49;74.72;100637.44;5015550;28;20206;-78
2023/12/26 11:08:47;;;;;;;4.17;1.30;;;;;;;9.48;74.19;100640.06;5014155;28;20202;-79
2023/12/26 11:11:13;;;;;;;3.87;1.20;;;;;;;9.26;75.32;100650.72;5015226;28;20291;-79
2023/12/26 11:13:40;;;;;;;3.10;1.43;;;;;;;9.36;76.08;100629.78;5032780;23;20251;-81
2023/12/26 11:16:07;;;;;;;3.53;0.90;;;;;;;9.34;75.93;100621.97;5054092;28;20228;-80
2023/12/26 11:18:33;;;;;;;4.57;1.43;;;;;;;9.42;76.17;100614.06;5054539;28;20718;-79
2023/12/26 11:21:00;;;;;;;3.23;1.00;;;;;;;9.40;75.91;100628.88;5055643;28;20200;-81
2023/12/26 11:23:25;;;;;;;2.50;0.93;;;;;;;9.32;75.72;100615.91;5050787;28;20244;-81
2023/12/26 11:25:53;;;;;;;4.67;1.20;;;;;;;9.36;75.50;100641.06;5034689;28;20208;-79
2023/12/26 11:28:20;;;;;;;4.63;1.17;;;;;;;9.46;74.34;100639.22;5035574;28;20307;-79